EDT,Max TemperatureF,Mean TemperatureF,Min TemperatureF,Max Dew PointF,MeanDew PointF,Min DewpointF,Max Humidity, Mean Humidity, Min Humidity, Max Sea Level PressureIn, Mean Sea Level PressureIn, Min Sea Level PressureIn, Max VisibilityMiles, Mean VisibilityMiles, Min VisibilityMiles, Max Wind SpeedMPH, Mean Wind SpeedMPH, Max Gust SpeedMPH,PrecipitationIn, CloudCover, Events, WindDirDegrees
2013-6-1,82,77,72,74,73,72,100,90,79,30.02,30.00,29.97,10,10,4,20,8,25,0.11,6,Rain-Thunderstorm,121
2013-6-2,85,78,70,74,72,70,100,83,65,29.99,29.96,29.92,10,10,10,18,5,25,T,5,Rain,177
2013-6-3,82,77,72,75,72,71,100,85,69,30.04,29.96,29.92,10,8,0,21,5,26,1.21,6,Fog-Rain-Thunderstorm,222
2013-6-4,81,77,72,74,73,71,100,87,74,30.06,30.01,29.96,10,10,7,12,4,14,0.01,8,Rain,92
2013-6-5,80,78,76,76,74,72,94,87,79,30.02,29.96,29.91,10,10,10,17,10,21,0.02,8,Rain,106
2013-6-6,83,77,70,77,74,70,100,90,79,29.91,29.83,29.77,10,7,0,36,13,47,1.35,7,Fog-Rain-Thunderstorm,163
2013-6-7,86,78,70,75,72,71,100,83,65,29.99,29.93,29.84,10,9,4,16,7,21,0.54,6,Rain-Thunderstorm,212
2013-6-8,80,75,70,76,73,71,100,96,91,30.11,30.05,29.97,10,8,1,26,6,33,2.95,7,Rain-Thunderstorm,124
2013-6-9,84,79,74,75,73,71,94,84,74,30.12,30.08,30.04,10,10,2,24,12,28,0.13,5,Rain,120
2013-6-10,83,80,76,75,74,73,94,84,74,30.09,30.06,30.02,10,10,10,18,11,29,0.00,4,,120
2013-6-11,86,82,78,76,75,72,100,83,65,30.09,30.05,30.02,10,10,10,21,9,25,T,5,Rain-Thunderstorm,139
2013-6-12,85,80,74,76,75,72,100,85,70,30.08,30.05,30.03,10,10,10,14,3,16,0.00,5,Thunderstorm-Tornado,124
2013-6-13,87,80,72,76,73,69,100,81,61,30.05,30.01,29.95,10,8,0,15,4,25,0.31,5,Fog-Rain-Thunderstorm,208
2013-6-14,88,80,72,75,72,69,100,80,59,29.97,29.92,29.89,10,10,10,18,8,26,0.02,3,Rain-Thunderstorm,223
2013-6-15,87,79,71,74,73,71,100,83,65,30.06,30.00,29.94,10,10,10,14,6,18,0.00,3,,243
2013-6-16,88,82,76,75,74,72,94,80,65,30.09,30.06,30.03,10,10,10,15,8,18,0.00,4,,114
2013-6-17,90,84,77,79,74,72,100,78,56,30.08,30.05,30.02,10,10,10,17,9,24,0.00,3,,144
2013-6-18,90,84,77,78,74,72,82,72,61,30.07,30.04,29.99,10,10,10,18,7,22,0.00,3,,147
2013-6-19,91,85,78,76,73,70,82,69,56,30.05,30.03,29.99,10,10,10,18,8,23,T,5,Thunderstorm,155
2013-6-20,91,84,76,73,69,66,79,63,47,30.09,30.06,30.03,10,10,10,18,7,23,T,5,Rain-Thunderstorm,151
2013-6-21,90,84,77,72,70,68,79,65,50,30.12,30.08,30.04,10,10,10,15,9,22,0.00,4,,129
2013-6-22,89,85,80,71,70,67,69,60,50,30.11,30.08,30.05,10,10,10,16,10,22,0.00,4,,103
2013-6-23,89,85,80,73,71,68,74,65,55,30.14,30.10,30.06,10,10,3,25,13,30,0.11,5,Rain,121
2013-6-24,89,86,82,71,70,68,65,60,55,30.17,30.12,30.09,10,10,10,18,13,23,0.00,3,,109
2013-6-25,90,86,81,73,72,69,74,65,56,30.14,30.09,30.06,10,10,10,20,12,25,T,4,,115
2013-6-26,89,84,79,75,72,69,79,67,55,30.08,30.05,30.01,10,9,1,26,10,33,0.92,6,Rain,136
2013-6-27,89,82,74,75,72,68,79,70,61,30.07,30.02,29.97,10,9,1,15,5,20,1.68,5,Rain-Thunderstorm,135
2013-6-28,91,83,75,74,71,68,87,71,55,29.99,29.93,29.87,10,8,0,20,7,21,1.54,5,Rain-Thunderstorm,167
2013-6-29,92,83,74,74,71,66,87,68,49,29.92,29.88,29.81,10,9,1,37,5,44,0.48,5,Rain-Thunderstorm,194
2013-6-30,92,84,75,74,71,68,85,69,52,29.96,29.90,29.85,10,8,1,24,8,32,1.35,5,Rain-Thunderstorm,194